Time,TemperatureF,DewpointF,PressureIn,WindDirection,WindDirectionDegrees,WindSpeedMPH,WindSpeedGustMPH,Humidity,HourlyPrecipIn,Conditions,Clouds,dailyrainin,SolarRadiationWatts/m^2,SoftwareType,DateUTC
2015-02-01 00:03:00,66.3,52.5,30.17,East,80,3.0,5.0,61,0.00,,SCT042,0.00,0.00,VWS V14.00,2015-02-01 05:03:00,
2015-02-01 00:08:00,66.2,52.4,30.17,East,101,4.0,5.0,61,0.00,,SCT042,0.00,0.00,VWS V14.00,2015-02-01 05:08:00,
2015-02-01 00:13:00,66.3,52.5,30.17,ESE,103,2.0,5.0,61,0.00,,SCT042,0.00,0.00,VWS V14.00,2015-02-01 05:13:00,
2015-02-01 00:23:00,66.5,53.1,30.16,ESE,102,6.0,9.0,62,0.00,,SCT042,0.00,0.00,VWS V14.00,2015-02-01 05:23:00,
2015-02-01 00:28:00,66.7,53.3,30.17,East,92,5.0,5.0,62,0.00,,SCT042,0.00,0.00,VWS V14.00,2015-02-01 05:28:00,
2015-02-01 00:33:00,66.7,53.3,30.16,SSE,153,6.0,8.0,62,0.00,,SCT042,0.00,0.00,VWS V14.00,2015-02-01 05:33:00,
2015-02-01 00:38:00,66.6,52.8,30.16,ESE,111,4.0,8.0,61,0.00,,SCT042,0.00,0.00,VWS V14.00,2015-02-01 05:38:00,
2015-02-01 00:43:00,66.5,52.2,30.16,East,88,10.0,12.0,60,0.00,,SCT042,0.00,0.00,VWS V14.00,2015-02-01 05:43:00,
2015-02-01 00:48:00,66.5,52.2,30.16,East,83,4.0,6.0,60,0.00,,SCT042,0.00,0.00,VWS V14.00,2015-02-01 05:48:00,
2015-02-01 00:53:00,66.5,52.7,30.16,East,98,7.0,9.0,61,0.00,,SCT042,0.00,0.00,VWS V14.00,2015-02-01 05:53:00,
2015-02-01 00:58:00,66.4,52.6,30.16,East,82,7.0,8.0,61,0.00,,SCT042,0.00,0.00,VWS V14.00,2015-02-01 05:58:00,
2015-02-01 01:03:00,66.3,52.5,30.16,East,87,6.0,6.0,61,0.00,,SCT042,0.00,0.00,VWS V14.00,2015-02-01 06:03:00,
2015-02-01 01:08:00,66.2,52.4,30.16,ESE,114,3.0,5.0,61,0.00,,SCT042,0.00,0.00,VWS V14.00,2015-02-01 06:08:00,
2015-02-01 01:13:00,66.2,52.8,30.15,East,89,4.0,7.0,62,0.00,,SCT042,0.00,0.00,VWS V14.00,2015-02-01 06:13:00,
2015-02-01 01:18:00,66.2,53.2,30.15,ESE,117,4.0,7.0,63,0.00,,SCT042,0.00,0.00,VWS V14.00,2015-02-01 06:18:00,
2015-02-01 01:23:00,66.4,53.4,30.16,ESE,116,6.0,11.0,63,0.00,,SCT042,0.00,0.00,VWS V14.00,2015-02-01 06:23:00,
2015-02-01 01:28:00,66.4,53.0,30.16,ENE,74,6.0,11.0,62,0.00,,SCT042,0.00,0.00,VWS V14.00,2015-02-01 06:28:00,
2015-02-01 01:33:00,66.3,53.3,30.15,NE,46,4.0,6.0,63,0.00,,SCT042,0.00,0.00,VWS V14.00,2015-02-01 06:33:00,
2015-02-01 01:38:00,66.2,52.8,30.15,ESE,111,4.0,7.0,62,0.00,,SCT042,0.00,0.00,VWS V14.00,2015-02-01 06:38:00,
2015-02-01 01:43:00,66.1,53.2,30.15,East,88,6.0,7.0,63,0.00,,SCT042,0.00,0.00,VWS V14.00,2015-02-01 06:43:00,
2015-02-01 01:48:00,66.0,53.5,30.15,East,89,5.0,7.0,64,0.00,,SCT042,0.00,0.00,VWS V14.00,2015-02-01 06:48:00,